sensor_id;sensor_type;location;lat;lon;timestamp;P1;durP1;ratioP1;P2;durP2;ratioP2
5195;SDS011;2617;51.006;12.436;2023-07-24T00:03:24;3.80;;;2.60;;
5195;SDS011;2617;51.006;12.436;2023-07-24T00:08:28;3.40;;;3.00;;
5195;SDS011;2617;51.006;12.436;2023-07-24T00:13:31;5.27;;;2.70;;
5195;SDS011;2617;51.006;12.436;2023-07-24T00:18:33;3.23;;;2.90;;
5195;SDS011;2617;51.006;12.436;2023-07-24T00:23:36;4.68;;;3.33;;
5195;SDS011;2617;51.006;12.436;2023-07-24T00:28:38;4.12;;;2.90;;
5195;SDS011;2617;51.006;12.436;2023-07-24T00:33:41;4.63;;;3.07;;
5195;SDS011;2617;51.006;12.436;2023-07-24T00:38:44;6.65;;;2.55;;
5195;SDS011;2617;51.006;12.436;2023-07-24T00:43:46;6.60;;;3.27;;
5195;SDS011;2617;51.006;12.436;2023-07-24T00:48:49;3.23;;;2.93;;
5195;SDS011;2617;51.006;12.436;2023-07-24T00:53:51;3.40;;;3.10;;
5195;SDS011;2617;51.006;12.436;2023-07-24T00:58:54;4.30;;;2.97;;
5195;SDS011;2617;51.006;12.436;2023-07-24T01:03:57;4.70;;;2.30;;
5195;SDS011;2617;51.006;12.436;2023-07-24T01:09:00;4.97;;;2.87;;
5195;SDS011;2617;51.006;12.436;2023-07-24T01:14:04;4.20;;;2.73;;
5195;SDS011;2617;51.006;12.436;2023-07-24T01:19:20;3.40;;;2.33;;
5195;SDS011;2617;51.006;12.436;2023-07-24T01:24:34;3.33;;;2.62;;
5195;SDS011;2617;51.006;12.436;2023-07-24T01:29:36;6.83;;;2.60;;
5195;SDS011;2617;51.006;12.436;2023-07-24T01:34:38;5.10;;;3.03;;
5195;SDS011;2617;51.006;12.436;2023-07-24T01:39:41;4.10;;;3.00;;
5195;SDS011;2617;51.006;12.436;2023-07-24T01:44:43;3.10;;;2.80;;
5195;SDS011;2617;51.006;12.436;2023-07-24T01:49:46;2.43;;;2.23;;
5195;SDS011;2617;51.006;12.436;2023-07-24T01:54:48;4.03;;;2.40;;
5195;SDS011;2617;51.006;12.436;2023-07-24T01:59:51;3.70;;;2.90;;
5195;SDS011;2617;51.006;12.436;2023-07-24T02:04:53;4.37;;;3.20;;
5195;SDS011;2617;51.006;12.436;2023-07-24T02:09:56;3.60;;;2.80;;
5195;SDS011;2617;51.006;12.436;2023-07-24T02:14:59;3.70;;;3.20;;
5195;SDS011;2617;51.006;12.436;2023-07-24T02:20:02;3.33;;;3.00;;
5195;SDS011;2617;51.006;12.436;2023-07-24T02:25:05;3.30;;;3.00;;
5195;SDS011;2617;51.006;12.436;2023-07-24T02:30:08;3.05;;;2.75;;
5195;SDS011;2617;51.006;12.436;2023-07-24T02:35:12;3.50;;;2.70;;
5195;SDS011;2617;51.006;12.436;2023-07-24T02:40:14;5.70;;;3.30;;
5195;SDS011;2617;51.006;12.436;2023-07-24T02:45:17;5.97;;;2.60;;
5195;SDS011;2617;51.006;12.436;2023-07-24T02:50:19;3.33;;;2.57;;
5195;SDS011;2617;51.006;12.436;2023-07-24T02:55:22;4.23;;;3.10;;
5195;SDS011;2617;51.006;12.436;2023-07-24T03:00:24;3.20;;;2.90;;
5195;SDS011;2617;51.006;12.436;2023-07-24T03:05:27;3.10;;;2.80;;
5195;SDS011;2617;51.006;12.436;2023-07-24T03:10:31;4.50;;;3.20;;
5195;SDS011;2617;51.006;12.436;2023-07-24T03:15:33;4.30;;;2.70;;
5195;SDS011;2617;51.006;12.436;2023-07-24T03:20:36;4.65;;;3.00;;
5195;SDS011;2617;51.006;12.436;2023-07-24T03:25:38;4.53;;;3.35;;
5195;SDS011;2617;51.006;12.436;2023-07-24T03:30:41;4.63;;;3.60;;
5195;SDS011;2617;51.006;12.436;2023-07-24T03:35:43;3.83;;;3.17;;
5195;SDS011;2617;51.006;12.436;2023-07-24T03:40:45;4.28;;;3.40;;
5195;SDS011;2617;51.006;12.436;2023-07-24T03:45:48;3.80;;;2.93;;
5195;SDS011;2617;51.006;12.436;2023-07-24T03:50:53;4.13;;;3.20;;
5195;SDS011;2617;51.006;12.436;2023-07-24T03:55:53;3.73;;;3.33;;
5195;SDS011;2617;51.006;12.436;2023-07-24T04:00:55;4.57;;;3.00;;
5195;SDS011;2617;51.006;12.436;2023-07-24T04:05:58;5.97;;;3.17;;
5195;SDS011;2617;51.006;12.436;2023-07-24T04:11:02;5.00;;;3.90;;
5195;SDS011;2617;51.006;12.436;2023-07-24T04:16:04;4.00;;;3.00;;
5195;SDS011;2617;51.006;12.436;2023-07-24T04:21:07;4.00;;;3.27;;
5195;SDS011;2617;51.006;12.436;2023-07-24T04:26:10;4.40;;;3.42;;
5195;SDS011;2617;51.006;12.436;2023-07-24T04:31:12;4.97;;;3.17;;
5195;SDS011;2617;51.006;12.436;2023-07-24T04:36:14;4.77;;;3.80;;
5195;SDS011;2617;51.006;12.436;2023-07-24T04:41:17;3.30;;;3.00;;
5195;SDS011;2617;51.006;12.436;2023-07-24T04:46:19;4.93;;;3.40;;
5195;SDS011;2617;51.006;12.436;2023-07-24T04:51:22;6.10;;;3.67;;
5195;SDS011;2617;51.006;12.436;2023-07-24T04:56:25;5.47;;;3.30;;
5195;SDS011;2617;51.006;12.436;2023-07-24T05:01:28;8.30;;;4.30;;
5195;SDS011;2617;51.006;12.436;2023-07-24T05:06:32;5.15;;;3.55;;
5195;SDS011;2617;51.006;12.436;2023-07-24T05:11:35;5.50;;;3.60;;
5195;SDS011;2617;51.006;12.436;2023-07-24T05:16:38;5.57;;;3.80;;
5195;SDS011;2617;51.006;12.436;2023-07-24T05:21:40;5.03;;;3.00;;
5195;SDS011;2617;51.006;12.436;2023-07-24T05:26:44;4.63;;;3.70;;
5195;SDS011;2617;51.006;12.436;2023-07-24T05:31:46;4.45;;;3.42;;
5195;SDS011;2617;51.006;12.436;2023-07-24T05:36:49;8.53;;;4.17;;
5195;SDS011;2617;51.006;12.436;2023-07-24T05:41:52;5.90;;;3.80;;
5195;SDS011;2617;51.006;12.436;2023-07-24T05:46:54;5.30;;;3.93;;
5195;SDS011;2617;51.006;12.436;2023-07-24T05:51:56;4.80;;;3.47;;
5195;SDS011;2617;51.006;12.436;2023-07-24T05:56:59;9.17;;;4.00;;
5195;SDS011;2617;51.006;12.436;2023-07-24T06:02:02;10.43;;;4.00;;
5195;SDS011;2617;51.006;12.436;2023-07-24T06:07:05;4.83;;;3.90;;
5195;SDS011;2617;51.006;12.436;2023-07-24T06:12:08;8.57;;;4.63;;
5195;SDS011;2617;51.006;12.436;2023-07-24T06:17:11;5.60;;;3.67;;
5195;SDS011;2617;51.006;12.436;2023-07-24T06:22:13;4.80;;;3.67;;
5195;SDS011;2617;51.006;12.436;2023-07-24T06:27:15;5.78;;;3.90;;
5195;SDS011;2617;51.006;12.436;2023-07-24T06:32:18;7.37;;;4.30;;
5195;SDS011;2617;51.006;12.436;2023-07-24T06:37:20;5.37;;;4.03;;
5195;SDS011;2617;51.006;12.436;2023-07-24T06:42:23;6.00;;;3.80;;
5195;SDS011;2617;51.006;12.436;2023-07-24T06:47:25;6.37;;;4.30;;
5195;SDS011;2617;51.006;12.436;2023-07-24T06:52:28;5.07;;;4.23;;
5195;SDS011;2617;51.006;12.436;2023-07-24T06:57:30;8.13;;;4.37;;
5195;SDS011;2617;51.006;12.436;2023-07-24T07:02:33;6.93;;;4.07;;
5195;SDS011;2617;51.006;12.436;2023-07-24T07:07:36;5.43;;;4.20;;
5195;SDS011;2617;51.006;12.436;2023-07-24T07:12:39;7.00;;;4.10;;
5195;SDS011;2617;51.006;12.436;2023-07-24T07:17:41;6.63;;;4.47;;
5195;SDS011;2617;51.006;12.436;2023-07-24T07:22:43;7.10;;;4.50;;
5195;SDS011;2617;51.006;12.436;2023-07-24T07:27:46;5.90;;;4.20;;
5195;SDS011;2617;51.006;12.436;2023-07-24T07:32:48;6.18;;;4.37;;
5195;SDS011;2617;51.006;12.436;2023-07-24T07:37:51;8.10;;;4.47;;
5195;SDS011;2617;51.006;12.436;2023-07-24T07:42:54;7.00;;;4.73;;
5195;SDS011;2617;51.006;12.436;2023-07-24T07:47:57;8.77;;;4.50;;
5195;SDS011;2617;51.006;12.436;2023-07-24T07:52:59;4.90;;;4.03;;
5195;SDS011;2617;51.006;12.436;2023-07-24T07:58:01;5.07;;;3.93;;
5195;SDS011;2617;51.006;12.436;2023-07-24T08:03:04;4.87;;;3.80;;
5195;SDS011;2617;51.006;12.436;2023-07-24T08:08:06;7.93;;;3.93;;
5195;SDS011;2617;51.006;12.436;2023-07-24T08:13:09;5.03;;;4.20;;
5195;SDS011;2617;51.006;12.436;2023-07-24T08:18:12;5.87;;;4.67;;
5195;SDS011;2617;51.006;12.436;2023-07-24T08:23:15;9.00;;;4.53;;
5195;SDS011;2617;51.006;12.436;2023-07-24T08:28:17;7.60;;;4.83;;
5195;SDS011;2617;51.006;12.436;2023-07-24T08:33:20;8.43;;;5.03;;
5195;SDS011;2617;51.006;12.436;2023-07-24T08:38:22;6.40;;;4.97;;
5195;SDS011;2617;51.006;12.436;2023-07-24T08:43:25;8.07;;;5.03;;
5195;SDS011;2617;51.006;12.436;2023-07-24T08:48:35;5.97;;;4.80;;
5195;SDS011;2617;51.006;12.436;2023-07-24T08:53:39;6.77;;;4.73;;
5195;SDS011;2617;51.006;12.436;2023-07-24T08:58:41;7.10;;;5.47;;
5195;SDS011;2617;51.006;12.436;2023-07-24T09:03:43;7.10;;;5.20;;
5195;SDS011;2617;51.006;12.436;2023-07-24T09:08:46;5.82;;;4.85;;
5195;SDS011;2617;51.006;12.436;2023-07-24T09:13:48;6.50;;;5.00;;
5195;SDS011;2617;51.006;12.436;2023-07-24T09:18:51;10.77;;;5.63;;
5195;SDS011;2617;51.006;12.436;2023-07-24T09:23:53;6.17;;;4.73;;
5195;SDS011;2617;51.006;12.436;2023-07-24T09:28:55;7.77;;;5.17;;
5195;SDS011;2617;51.006;12.436;2023-07-24T09:33:58;8.53;;;4.50;;
5195;SDS011;2617;51.006;12.436;2023-07-24T09:39:00;6.67;;;4.70;;
5195;SDS011;2617;51.006;12.436;2023-07-24T09:44:03;8.80;;;5.07;;
5195;SDS011;2617;51.006;12.436;2023-07-24T09:49:05;5.63;;;4.03;;
5195;SDS011;2617;51.006;12.436;2023-07-24T09:59:28;8.00;;;4.60;;
5195;SDS011;2617;51.006;12.436;2023-07-24T10:04:32;8.37;;;6.10;;
5195;SDS011;2617;51.006;12.436;2023-07-24T10:09:33;9.83;;;5.70;;
5195;SDS011;2617;51.006;12.436;2023-07-24T10:14:36;6.87;;;5.07;;
5195;SDS011;2617;51.006;12.436;2023-07-24T10:19:41;8.47;;;5.60;;
5195;SDS011;2617;51.006;12.436;2023-07-24T10:24:42;9.98;;;5.32;;
5195;SDS011;2617;51.006;12.436;2023-07-24T10:29:45;7.20;;;5.22;;
5195;SDS011;2617;51.006;12.436;2023-07-24T10:34:55;9.97;;;4.90;;
5195;SDS011;2617;51.006;12.436;2023-07-24T10:39:55;6.93;;;4.97;;
5195;SDS011;2617;51.006;12.436;2023-07-24T10:45:04;8.30;;;5.70;;
5195;SDS011;2617;51.006;12.436;2023-07-24T10:50:07;8.63;;;5.20;;
5195;SDS011;2617;51.006;12.436;2023-07-24T10:55:10;7.68;;;6.03;;
5195;SDS011;2617;51.006;12.436;2023-07-24T11:00:13;7.93;;;5.57;;
5195;SDS011;2617;51.006;12.436;2023-07-24T11:05:16;7.60;;;5.70;;
5195;SDS011;2617;51.006;12.436;2023-07-24T11:10:19;6.85;;;5.40;;
5195;SDS011;2617;51.006;12.436;2023-07-24T11:15:23;10.60;;;6.00;;
5195;SDS011;2617;51.006;12.436;2023-07-24T11:20:25;9.20;;;5.90;;
5195;SDS011;2617;51.006;12.436;2023-07-24T11:25:28;8.37;;;5.60;;
5195;SDS011;2617;51.006;12.436;2023-07-24T11:30:30;9.80;;;5.80;;
5195;SDS011;2617;51.006;12.436;2023-07-24T11:35:33;8.67;;;6.10;;
5195;SDS011;2617;51.006;12.436;2023-07-24T11:40:37;10.13;;;6.22;;
5195;SDS011;2617;51.006;12.436;2023-07-24T11:45:42;8.97;;;6.23;;
5195;SDS011;2617;51.006;12.436;2023-07-24T11:50:45;8.18;;;5.87;;
5195;SDS011;2617;51.006;12.436;2023-07-24T11:55:48;11.12;;;6.40;;
5195;SDS011;2617;51.006;12.436;2023-07-24T12:00:50;11.68;;;5.95;;
5195;SDS011;2617;51.006;12.436;2023-07-24T12:05:52;6.90;;;4.97;;
5195;SDS011;2617;51.006;12.436;2023-07-24T12:10:55;11.07;;;7.05;;
5195;SDS011;2617;51.006;12.436;2023-07-24T12:15:57;10.13;;;5.90;;
5195;SDS011;2617;51.006;12.436;2023-07-24T12:21:00;7.47;;;5.50;;
5195;SDS011;2617;51.006;12.436;2023-07-24T12:26:02;5.90;;;5.00;;
5195;SDS011;2617;51.006;12.436;2023-07-24T12:31:05;7.87;;;5.50;;
5195;SDS011;2617;51.006;12.436;2023-07-24T12:36:07;8.70;;;5.67;;
5195;SDS011;2617;51.006;12.436;2023-07-24T12:41:10;5.70;;;4.73;;
5195;SDS011;2617;51.006;12.436;2023-07-24T12:46:12;7.40;;;5.22;;
5195;SDS011;2617;51.006;12.436;2023-07-24T12:51:15;8.27;;;5.28;;
5195;SDS011;2617;51.006;12.436;2023-07-24T12:56:17;6.95;;;4.70;;
5195;SDS011;2617;51.006;12.436;2023-07-24T13:01:19;5.73;;;4.40;;
5195;SDS011;2617;51.006;12.436;2023-07-24T13:06:23;7.12;;;5.35;;
5195;SDS011;2617;51.006;12.436;2023-07-24T13:11:25;5.95;;;4.35;;
5195;SDS011;2617;51.006;12.436;2023-07-24T13:16:28;6.57;;;4.60;;
5195;SDS011;2617;51.006;12.436;2023-07-24T13:21:31;15.03;;;5.40;;
5195;SDS011;2617;51.006;12.436;2023-07-24T13:26:33;9.63;;;5.40;;
5195;SDS011;2617;51.006;12.436;2023-07-24T13:31:35;6.60;;;5.03;;
5195;SDS011;2617;51.006;12.436;2023-07-24T13:36:38;7.80;;;5.50;;
5195;SDS011;2617;51.006;12.436;2023-07-24T13:41:40;8.40;;;5.70;;
5195;SDS011;2617;51.006;12.436;2023-07-24T13:46:43;8.30;;;5.10;;
5195;SDS011;2617;51.006;12.436;2023-07-24T13:51:45;7.77;;;4.87;;
5195;SDS011;2617;51.006;12.436;2023-07-24T13:56:49;6.82;;;4.85;;
5195;SDS011;2617;51.006;12.436;2023-07-24T14:01:51;13.93;;;5.90;;
5195;SDS011;2617;51.006;12.436;2023-07-24T14:06:53;9.40;;;5.40;;
5195;SDS011;2617;51.006;12.436;2023-07-24T14:11:56;8.40;;;4.57;;
5195;SDS011;2617;51.006;12.436;2023-07-24T14:16:58;6.77;;;4.70;;
5195;SDS011;2617;51.006;12.436;2023-07-24T14:22:01;8.40;;;5.40;;
5195;SDS011;2617;51.006;12.436;2023-07-24T14:27:03;17.23;;;5.40;;
5195;SDS011;2617;51.006;12.436;2023-07-24T14:32:07;8.40;;;6.13;;
5195;SDS011;2617;51.006;12.436;2023-07-24T14:37:09;6.63;;;5.20;;
5195;SDS011;2617;51.006;12.436;2023-07-24T14:42:12;8.40;;;6.47;;
5195;SDS011;2617;51.006;12.436;2023-07-24T14:47:15;8.40;;;5.60;;
5195;SDS011;2617;51.006;12.436;2023-07-24T14:52:17;8.80;;;5.97;;
5195;SDS011;2617;51.006;12.436;2023-07-24T14:57:20;6.37;;;4.95;;
5195;SDS011;2617;51.006;12.436;2023-07-24T15:02:22;8.83;;;5.77;;
5195;SDS011;2617;51.006;12.436;2023-07-24T15:07:25;8.97;;;6.20;;
5195;SDS011;2617;51.006;12.436;2023-07-24T15:12:28;8.87;;;5.33;;
5195;SDS011;2617;51.006;12.436;2023-07-24T15:17:30;7.63;;;5.60;;
5195;SDS011;2617;51.006;12.436;2023-07-24T15:22:33;9.60;;;6.20;;
5195;SDS011;2617;51.006;12.436;2023-07-24T15:27:35;9.00;;;6.23;;
5195;SDS011;2617;51.006;12.436;2023-07-24T15:32:38;10.00;;;6.50;;
5195;SDS011;2617;51.006;12.436;2023-07-24T15:37:40;8.60;;;6.13;;
5195;SDS011;2617;51.006;12.436;2023-07-24T15:42:42;7.93;;;6.13;;
5195;SDS011;2617;51.006;12.436;2023-07-24T15:47:45;8.95;;;5.65;;
5195;SDS011;2617;51.006;12.436;2023-07-24T15:52:47;9.40;;;6.73;;
5195;SDS011;2617;51.006;12.436;2023-07-24T15:57:50;9.43;;;6.10;;
5195;SDS011;2617;51.006;12.436;2023-07-24T16:02:52;8.73;;;5.78;;
5195;SDS011;2617;51.006;12.436;2023-07-24T16:07:55;10.03;;;6.27;;
5195;SDS011;2617;51.006;12.436;2023-07-24T16:12:57;8.18;;;5.43;;
5195;SDS011;2617;51.006;12.436;2023-07-24T16:17:59;10.07;;;6.17;;
5195;SDS011;2617;51.006;12.436;2023-07-24T16:23:02;10.57;;;5.40;;
5195;SDS011;2617;51.006;12.436;2023-07-24T16:28:04;10.53;;;6.40;;
5195;SDS011;2617;51.006;12.436;2023-07-24T16:33:07;9.47;;;5.90;;
5195;SDS011;2617;51.006;12.436;2023-07-24T16:38:11;9.20;;;6.30;;
5195;SDS011;2617;51.006;12.436;2023-07-24T16:43:13;9.23;;;5.80;;
5195;SDS011;2617;51.006;12.436;2023-07-24T16:48:15;8.30;;;5.27;;
5195;SDS011;2617;51.006;12.436;2023-07-24T16:53:18;10.70;;;6.00;;
5195;SDS011;2617;51.006;12.436;2023-07-24T16:58:20;9.90;;;6.00;;
5195;SDS011;2617;51.006;12.436;2023-07-24T17:03:23;13.88;;;5.93;;
5195;SDS011;2617;51.006;12.436;2023-07-24T17:08:25;8.10;;;6.05;;
5195;SDS011;2617;51.006;12.436;2023-07-24T17:13:29;7.95;;;5.90;;
5195;SDS011;2617;51.006;12.436;2023-07-24T17:18:30;8.70;;;5.63;;
5195;SDS011;2617;51.006;12.436;2023-07-24T17:23:33;8.07;;;5.67;;
5195;SDS011;2617;51.006;12.436;2023-07-24T17:28:35;13.20;;;6.40;;
5195;SDS011;2617;51.006;12.436;2023-07-24T17:33:38;11.47;;;6.47;;
5195;SDS011;2617;51.006;12.436;2023-07-24T17:38:41;8.60;;;2.30;;
5195;SDS011;2617;51.006;12.436;2023-07-24T17:43:44;3.20;;;2.10;;
5195;SDS011;2617;51.006;12.436;2023-07-24T17:48:46;8.57;;;3.40;;
5195;SDS011;2617;51.006;12.436;2023-07-24T17:53:48;7.65;;;2.50;;
5195;SDS011;2617;51.006;12.436;2023-07-24T17:58:51;5.30;;;2.43;;
5195;SDS011;2617;51.006;12.436;2023-07-24T18:03:54;6.87;;;2.50;;
5195;SDS011;2617;51.006;12.436;2023-07-24T18:08:56;8.40;;;3.03;;
5195;SDS011;2617;51.006;12.436;2023-07-24T18:13:59;5.73;;;2.77;;
5195;SDS011;2617;51.006;12.436;2023-07-24T18:19:01;6.75;;;2.67;;
5195;SDS011;2617;51.006;12.436;2023-07-24T18:24:04;5.80;;;2.67;;
5195;SDS011;2617;51.006;12.436;2023-07-24T18:29:06;4.93;;;2.43;;
5195;SDS011;2617;51.006;12.436;2023-07-24T18:34:10;4.50;;;2.13;;
5195;SDS011;2617;51.006;12.436;2023-07-24T18:39:13;5.40;;;2.37;;
5195;SDS011;2617;51.006;12.436;2023-07-24T18:44:15;5.30;;;2.73;;
5195;SDS011;2617;51.006;12.436;2023-07-24T18:49:18;3.77;;;2.13;;
5195;SDS011;2617;51.006;12.436;2023-07-24T18:54:21;3.72;;;2.60;;
5195;SDS011;2617;51.006;12.436;2023-07-24T18:59:23;5.05;;;3.45;;
5195;SDS011;2617;51.006;12.436;2023-07-24T19:04:26;5.75;;;2.42;;
5195;SDS011;2617;51.006;12.436;2023-07-24T19:09:28;6.60;;;2.63;;
5195;SDS011;2617;51.006;12.436;2023-07-24T19:14:31;5.40;;;2.17;;
5195;SDS011;2617;51.006;12.436;2023-07-24T19:19:33;5.33;;;2.60;;
5195;SDS011;2617;51.006;12.436;2023-07-24T19:24:36;4.07;;;2.87;;
5195;SDS011;2617;51.006;12.436;2023-07-24T19:29:38;4.23;;;3.03;;
5195;SDS011;2617;51.006;12.436;2023-07-24T19:34:40;3.20;;;2.17;;
5195;SDS011;2617;51.006;12.436;2023-07-24T19:39:43;6.00;;;2.80;;
5195;SDS011;2617;51.006;12.436;2023-07-24T19:44:46;4.50;;;2.60;;
5195;SDS011;2617;51.006;12.436;2023-07-24T19:49:49;7.17;;;3.47;;
5195;SDS011;2617;51.006;12.436;2023-07-24T19:54:51;4.70;;;2.80;;
5195;SDS011;2617;51.006;12.436;2023-07-24T19:59:53;3.53;;;2.17;;
5195;SDS011;2617;51.006;12.436;2023-07-24T20:04:57;3.90;;;2.53;;
5195;SDS011;2617;51.006;12.436;2023-07-24T20:09:59;3.87;;;2.27;;
5195;SDS011;2617;51.006;12.436;2023-07-24T20:15:01;2.60;;;2.13;;
5195;SDS011;2617;51.006;12.436;2023-07-24T20:20:05;4.37;;;2.97;;
5195;SDS011;2617;51.006;12.436;2023-07-24T20:25:09;2.93;;;2.53;;
5195;SDS011;2617;51.006;12.436;2023-07-24T20:30:12;6.40;;;2.53;;
5195;SDS011;2617;51.006;12.436;2023-07-24T20:35:14;4.43;;;2.50;;
5195;SDS011;2617;51.006;12.436;2023-07-24T20:40:17;5.20;;;2.97;;
5195;SDS011;2617;51.006;12.436;2023-07-24T20:45:19;4.50;;;2.50;;
5195;SDS011;2617;51.006;12.436;2023-07-24T20:50:22;4.87;;;2.30;;
5195;SDS011;2617;51.006;12.436;2023-07-24T20:55:24;5.43;;;2.60;;
5195;SDS011;2617;51.006;12.436;2023-07-24T21:00:27;6.33;;;3.40;;
5195;SDS011;2617;51.006;12.436;2023-07-24T21:05:29;4.12;;;2.85;;
5195;SDS011;2617;51.006;12.436;2023-07-24T21:10:32;4.50;;;2.80;;
5195;SDS011;2617;51.006;12.436;2023-07-24T21:15:34;5.03;;;3.37;;
5195;SDS011;2617;51.006;12.436;2023-07-24T21:20:39;3.67;;;3.03;;
5195;SDS011;2617;51.006;12.436;2023-07-24T21:31:08;2.55;;;2.35;;
5195;SDS011;2617;51.006;12.436;2023-07-24T21:36:11;5.43;;;3.08;;
5195;SDS011;2617;51.006;12.436;2023-07-24T21:41:14;5.22;;;3.05;;
5195;SDS011;2617;51.006;12.436;2023-07-24T21:46:17;5.10;;;2.93;;
5195;SDS011;2617;51.006;12.436;2023-07-24T21:51:20;10.67;;;3.43;;
5195;SDS011;2617;51.006;12.436;2023-07-24T21:56:22;4.75;;;3.08;;
5195;SDS011;2617;51.006;12.436;2023-07-24T22:01:25;3.23;;;2.90;;
5195;SDS011;2617;51.006;12.436;2023-07-24T22:06:28;6.50;;;3.72;;
5195;SDS011;2617;51.006;12.436;2023-07-24T22:11:30;5.00;;;3.13;;
5195;SDS011;2617;51.006;12.436;2023-07-24T22:16:33;4.77;;;3.30;;
5195;SDS011;2617;51.006;12.436;2023-07-24T22:21:35;7.03;;;3.37;;
5195;SDS011;2617;51.006;12.436;2023-07-24T22:26:38;6.17;;;3.47;;
5195;SDS011;2617;51.006;12.436;2023-07-24T22:31:40;8.20;;;3.47;;
5195;SDS011;2617;51.006;12.436;2023-07-24T22:36:43;5.47;;;3.10;;
5195;SDS011;2617;51.006;12.436;2023-07-24T22:41:45;5.67;;;3.70;;
5195;SDS011;2617;51.006;12.436;2023-07-24T22:46:47;5.23;;;3.13;;
5195;SDS011;2617;51.006;12.436;2023-07-24T22:51:50;5.83;;;3.80;;
5195;SDS011;2617;51.006;12.436;2023-07-24T22:56:52;7.62;;;3.10;;
5195;SDS011;2617;51.006;12.436;2023-07-24T23:01:55;5.40;;;3.03;;
5195;SDS011;2617;51.006;12.436;2023-07-24T23:06:57;7.07;;;3.50;;
5195;SDS011;2617;51.006;12.436;2023-07-24T23:12:00;5.27;;;3.33;;
5195;SDS011;2617;51.006;12.436;2023-07-24T23:17:02;4.03;;;3.10;;
5195;SDS011;2617;51.006;12.436;2023-07-24T23:22:05;4.67;;;3.20;;
5195;SDS011;2617;51.006;12.436;2023-07-24T23:27:08;8.30;;;2.80;;
5195;SDS011;2617;51.006;12.436;2023-07-24T23:32:10;4.13;;;3.10;;
5195;SDS011;2617;51.006;12.436;2023-07-24T23:37:13;3.47;;;2.50;;
5195;SDS011;2617;51.006;12.436;2023-07-24T23:42:17;5.47;;;2.87;;
5195;SDS011;2617;51.006;12.436;2023-07-24T23:47:19;5.23;;;3.17;;
5195;SDS011;2617;51.006;12.436;2023-07-24T23:52:22;6.18;;;3.40;;
5195;SDS011;2617;51.006;12.436;2023-07-24T23:57:24;4.62;;;3.05;;
